Time;durP1;ratioP1;P1;durP2;ratioP2;P2;SDS_P1;SDS_P2;PMS_P1;PMS_P2;Temp;Humidity;BMP_temperature;BMP_pressure;BME280_temperature;BME280_humidity;BME280_pressure;Samples;Min_cycle;Max_cycle;Signal;HPM_P1;HPM_P2
2023/04/09 00:01:53;;;;;;;;;9.00;7.00;;;;;21.14;34.50;101842.72;5078463;27;45286;-43
2023/04/09 00:04:19;;;;;;;;;8.00;8.00;;;;;21.20;34.68;101837.22;5078492;27;45466;-43
2023/04/09 00:06:44;;;;;;;;;7.75;7.00;;;;;21.26;34.38;101830.81;5078145;27;46270;-44
2023/04/09 00:09:09;;;;;;;;;8.00;8.00;;;;;21.31;34.32;101834.97;5078474;27;45362;-43
2023/04/09 00:11:35;;;;;;;;;11.50;9.00;;;;;21.36;34.52;101833.88;5078158;27;45311;-43
2023/04/09 00:14:00;;;;;;;;;6.75;6.75;;;;;21.40;34.48;101825.78;5078377;27;45416;-44
2023/04/09 00:16:26;;;;;;;;;8.50;7.25;;;;;21.43;34.42;101828.28;5077781;27;46524;-50
2023/04/09 00:18:51;;;;;;;;;7.00;6.00;;;;;21.46;34.11;101830.81;5077536;28;57450;-43
2023/04/09 00:21:16;;;;;;;;;6.50;6.50;;;;;21.49;34.29;101835.09;5078115;27;45354;-44
2023/04/09 00:23:42;;;;;;;;;6.00;6.00;;;;;21.49;34.23;101819.25;5077671;28;45370;-44
2023/04/09 00:26:08;;;;;;;;;7.25;7.25;;;;;21.52;34.11;101818.25;5078208;28;46199;-43
2023/04/09 00:28:34;;;;;;;;;7.25;7.25;;;;;21.54;34.31;101822.56;5077740;27;45425;-44
2023/04/09 00:31:00;;;;;;;;;8.00;6.50;;;;;21.55;33.88;101816.34;5077969;27;45431;-44
2023/04/09 00:33:26;;;;;;;;;8.75;7.00;;;;;21.55;34.09;101815.50;5078037;27;45373;-45
2023/04/09 00:35:51;;;;;;;;;7.25;7.00;;;;;21.56;34.28;101815.41;5077675;27;45977;-45
2023/04/09 00:38:16;;;;;;;;;6.00;6.00;;;;;21.57;34.32;101813.66;5077741;27;45332;-46
2023/04/09 00:40:42;;;;;;;;;8.00;6.00;;;;;21.58;34.30;101812.72;5078148;27;45284;-43
2023/04/09 00:43:08;;;;;;;;;6.00;6.00;;;;;21.58;33.99;101816.22;5077869;27;45176;-43
2023/04/09 00:45:33;;;;;;;;;8.00;6.00;;;;;21.57;34.01;101818.94;5075843;28;46462;-43
2023/04/09 00:47:59;;;;;;;;;7.25;6.00;;;;;21.57;34.00;101814.50;5076285;27;45330;-44
2023/04/09 00:50:24;;;;;;;;;5.25;4.50;;;;;21.57;34.22;101809.22;5076071;27;45449;-44
2023/04/09 00:52:50;;;;;;;;;7.50;7.00;;;;;21.58;33.98;101810.94;5077779;27;45583;-44
2023/04/09 00:55:17;;;;;;;;;8.00;6.00;;;;;21.57;33.96;101805.72;5077337;28;46069;-45
2023/04/09 00:57:42;;;;;;;;;7.00;7.00;;;;;21.56;34.22;101812.78;5075620;28;45959;-44
2023/04/09 01:00:11;;;;;;;;;6.75;6.75;;;;;21.56;33.86;101807.50;5076790;27;45429;-44
2023/04/09 01:02:37;;;;;;;;;6.25;6.25;;;;;21.56;34.12;101810.13;5076509;27;45542;-43
2023/04/09 01:05:03;;;;;;;;;6.00;5.75;;;;;21.55;34.03;101804.94;5074996;28;45397;-44
2023/04/09 01:08:05;;;;;;;;;7.75;6.00;;;;;21.54;34.28;101809.38;5075108;27;45375;-44
2023/04/09 01:10:41;;;;;;;;;12.75;8.00;;;;;21.53;34.20;101802.38;5075274;28;45370;-43
2023/04/09 01:13:25;;;;;;;;;7.00;7.00;;;;;21.52;34.16;101805.94;5075360;27;45315;-44
2023/04/09 01:15:56;;;;;;;;;6.25;5.50;;;;;21.51;34.01;101798.94;5074976;27;46678;-44
2023/04/09 01:18:33;;;;;;;;;6.25;6.25;;;;;21.51;34.15;101803.34;5076493;27;45459;-44
2023/04/09 01:21:05;;;;;;;;;6.25;6.25;;;;;21.49;33.97;101798.16;5077295;28;45380;-44
2023/04/09 01:23:46;;;;;;;;;7.00;7.00;;;;;21.47;34.06;101794.72;5077269;27;45337;-45
2023/04/09 01:26:30;;;;;;;;;7.00;7.00;;;;;21.46;34.02;101795.66;5077074;27;46357;-44
2023/04/09 01:28:56;;;;;;;;;10.50;7.75;;;;;21.43;34.00;101798.44;5076504;28;45950;-45
2023/04/09 01:31:30;;;;;;;;;7.00;7.00;;;;;21.43;33.74;101801.06;5076870;27;45377;-43
2023/04/09 01:33:57;;;;;;;;;9.25;8.25;;;;;21.37;33.74;101791.66;5077219;27;45365;-44
2023/04/09 01:36:25;;;;;;;;;8.25;8.00;;;;;21.41;33.91;101802.91;5076850;28;45634;-46
2023/04/09 01:38:51;;;;;;;;;8.00;7.25;;;;;21.39;33.87;101796.84;5076851;27;45811;-45
2023/04/09 01:41:20;;;;;;;;;10.00;7.50;;;;;21.38;33.68;101803.03;5076910;27;45412;-44
2023/04/09 01:43:49;;;;;;;;;9.00;7.00;;;;;21.37;33.72;101790.78;5077346;27;45533;-44
2023/04/09 01:46:16;;;;;;;;;7.75;6.00;;;;;21.35;33.76;101792.63;5076951;28;46240;-44
2023/04/09 01:48:42;;;;;;;;;7.00;6.75;;;;;21.34;34.12;101793.53;5076887;27;45877;-44
2023/04/09 01:51:08;;;;;;;;;6.50;6.50;;;;;21.31;33.74;101784.00;5076903;27;45452;-44
2023/04/09 01:53:33;;;;;;;;;8.50;7.50;;;;;21.33;34.11;101799.78;5076885;27;45488;-44
2023/04/09 01:56:00;;;;;;;;;9.75;8.25;;;;;21.30;33.89;101791.06;5075166;28;47483;-44
2023/04/09 01:58:25;;;;;;;;;7.25;6.25;;;;;21.29;34.20;101784.06;5076587;27;45761;-46
2023/04/09 02:00:58;;;;;;;;;6.75;6.75;;;;;21.27;34.28;101787.72;5076659;27;45400;-45
2023/04/09 02:03:31;;;;;;;;;6.00;6.00;;;;;21.26;34.47;101780.72;5076619;27;45377;-45
2023/04/09 02:06:06;;;;;;;;;7.00;7.00;;;;;21.24;34.01;101775.50;5076444;27;46152;-45
2023/04/09 02:08:34;;;;;;;;;7.00;7.00;;;;;21.25;34.02;101781.63;5075245;28;45343;-46
2023/04/09 02:11:03;;;;;;;;;9.00;7.75;;;;;21.21;34.23;101772.13;5076424;27;45443;-45
2023/04/09 02:13:30;;;;;;;;;11.00;8.00;;;;;21.21;34.07;101772.13;5076870;27;45406;-43
2023/04/09 02:15:58;;;;;;;;;7.25;7.00;;;;;21.20;33.79;101773.94;5076072;27;46398;-44
2023/04/09 02:18:28;;;;;;;;;4.00;4.00;;;;;21.17;34.18;101769.63;5076372;27;45773;-45
2023/04/09 02:20:58;;;;;;;;;7.00;7.00;;;;;21.16;34.11;101769.69;5076442;27;45325;-45
2023/04/09 02:23:24;;;;;;;;;9.25;7.50;;;;;21.15;34.10;101762.72;5076561;27;45335;-46
2023/04/09 02:25:51;;;;;;;;;10.75;9.00;;;;;21.14;34.37;101763.63;5076127;27;46194;-45
2023/04/09 02:28:17;;;;;;;;;7.25;7.25;;;;;21.12;34.06;101758.44;5076514;27;45234;-46
2023/04/09 02:30:42;;;;;;;;;7.75;6.00;;;;;21.12;34.00;101757.56;5076352;27;45232;-45
2023/04/09 02:33:08;;;;;;;;;7.00;6.00;;;;;21.11;33.94;101753.25;5076480;27;45587;-44
2023/04/09 02:35:33;;;;;;;;;7.50;6.50;;;;;21.10;34.02;101754.16;5075975;28;46065;-45
2023/04/09 02:37:59;;;;;;;;;7.75;6.00;;;;;21.08;34.09;101753.38;5076041;27;45388;-45
2023/04/09 02:40:24;;;;;;;;;10.00;8.00;;;;;21.06;34.45;101753.41;5076174;27;45380;-48
2023/04/09 02:42:51;;;;;;;;;8.00;8.00;;;;;21.06;34.37;101755.22;5075398;28;45295;-44
2023/04/09 02:45:17;;;;;;;;;7.00;7.00;;;;;21.04;34.31;101757.03;5076166;27;45283;-44
2023/04/09 02:47:42;;;;;;;;;7.50;6.25;;;;;21.01;34.43;101756.25;5076301;28;45338;-43
2023/04/09 02:50:07;;;;;;;;;8.00;7.00;;;;;21.00;34.10;101756.31;5079547;27;45284;-44
2023/04/09 02:52:33;;;;;;;;;7.25;7.25;;;;;21.00;34.03;101751.91;5078374;28;45305;-44
2023/04/09 02:54:58;;;;;;;;;7.00;7.00;;;;;21.00;34.26;101751.91;5079186;27;50243;-47
2023/04/09 02:57:23;;;;;;;;;8.50;7.00;;;;;20.99;34.37;101755.50;5079325;28;45489;-47
2023/04/09 02:59:48;;;;;;;;;8.25;7.25;;;;;20.98;34.63;101753.78;5079872;28;45347;-44
2023/04/09 03:02:14;;;;;;;;;8.75;8.50;;;;;20.97;34.25;101741.50;5079515;27;45282;-45
2023/04/09 03:04:39;;;;;;;;;7.50;6.50;;;;;20.94;34.64;101741.63;5078946;27;47008;-46
2023/04/09 03:07:05;;;;;;;;;6.25;6.25;;;;;20.96;34.57;101738.91;5079176;28;45456;-45
2023/04/09 03:09:30;;;;;;;;;7.00;7.00;;;;;20.92;34.19;101743.47;5079285;27;45411;-46
2023/04/09 03:11:56;;;;;;;;;5.25;4.75;;;;;20.89;34.67;101735.69;5079430;27;45337;-49
2023/04/09 03:14:24;;;;;;;;;6.25;4.25;;;;;20.89;34.33;101738.31;5079285;27;46136;-43
2023/04/09 03:16:50;;;;;;;;;10.00;8.75;;;;;20.88;34.62;101736.63;5079266;27;45929;-44
2023/04/09 03:19:15;;;;;;;;;7.00;6.00;;;;;20.88;34.58;101741.91;5078461;27;58293;-43
2023/04/09 03:21:41;;;;;;;;;8.25;6.00;;;;;20.87;34.64;101737.56;5077986;28;45678;-44
2023/04/09 03:24:06;;;;;;;;;7.75;7.75;;;;;20.87;34.35;101734.91;5078782;28;45300;-44
2023/04/09 03:26:35;;;;;;;;;7.25;7.00;;;;;20.86;34.36;101727.94;5078925;27;45353;-44
2023/04/09 03:29:01;;;;;;;;;7.00;6.00;;;;;20.86;34.41;101733.22;5079151;27;45184;-45
2023/04/09 03:31:27;;;;;;;;;9.50;7.50;;;;;20.86;34.56;101735.84;5079170;27;45471;-48
2023/04/09 03:33:52;;;;;;;;;9.00;9.00;;;;;20.84;34.71;101733.25;5078939;28;45274;-46
2023/04/09 03:36:17;;;;;;;;;7.67;7.67;;;;;20.82;34.76;101732.50;5078658;28;49373;-47
2023/04/09 03:38:45;;;;;;;;;8.00;7.00;;;;;20.83;34.79;101730.69;5077025;28;56916;-45
2023/04/09 03:41:11;;;;;;;;;9.50;7.75;;;;;20.81;34.33;101730.78;5079020;27;45308;-46
2023/04/09 03:43:36;;;;;;;;;8.75;8.00;;;;;20.82;34.53;101729.84;5078505;28;45424;-44
2023/04/09 03:46:13;;;;;;;;;8.33;7.33;;;;;20.80;34.70;101717.63;5078305;28;54516;-49
2023/04/09 03:48:38;;;;;;;;;10.00;9.00;;;;;20.80;34.88;101721.16;5078649;27;45436;-44
2023/04/09 03:51:04;;;;;;;;;11.00;6.67;;;;;20.80;34.39;101720.28;5078818;27;45255;-44
2023/04/09 03:53:29;;;;;;;;;8.25;5.25;;;;;20.80;34.60;101726.41;5078655;27;45826;-44
2023/04/09 03:55:55;;;;;;;;;11.75;7.50;;;;;20.82;34.53;101716.69;5078045;28;53584;-44
2023/04/09 03:58:20;;;;;;;;;8.00;8.00;;;;;20.85;34.57;101718.31;5077916;27;45385;-44
2023/04/09 04:00:45;;;;;;;;;8.33;7.00;;;;;20.92;35.17;101722.38;5077864;28;48901;-44
2023/04/09 04:03:13;;;;;;;;;7.00;6.25;;;;;20.96;34.79;101713.44;5078159;27;45986;-44
2023/04/09 04:05:38;;;;;;;;;7.50;7.00;;;;;21.06;34.65;101713.03;5076923;28;45850;-44
2023/04/09 04:08:04;;;;;;;;;8.75;8.75;;;;;21.11;34.83;101711.06;5077056;28;45462;-44
2023/04/09 04:10:29;;;;;;;;;10.75;8.00;;;;;21.18;34.81;101707.22;5078524;27;45364;-44
2023/04/09 04:12:54;;;;;;;;;8.00;8.00;;;;;21.26;34.85;101712.16;5078414;27;46901;-43
2023/04/09 04:15:20;;;;;;;;;5.75;5.75;;;;;21.33;34.90;101707.47;5078119;27;45272;-44
2023/04/09 04:17:45;;;;;;;;;8.00;7.67;;;;;21.39;34.73;101704.56;5077265;28;56746;-46
2023/04/09 04:20:10;;;;;;;;;11.00;8.00;;;;;21.43;34.64;101699.06;5077796;28;50298;-47
2023/04/09 04:22:36;;;;;;;;;8.25;7.00;;;;;21.48;34.70;101701.50;5077909;27;47219;-45
2023/04/09 04:25:03;;;;;;;;;8.75;7.50;;;;;21.52;34.63;101699.56;5077880;27;45326;-44
2023/04/09 04:27:29;;;;;;;;;7.50;7.50;;;;;21.56;34.34;101704.63;5078029;27;45349;-45
2023/04/09 04:29:57;;;;;;;;;7.50;6.25;;;;;21.58;34.43;101705.41;5078454;28;45290;-44
2023/04/09 04:32:22;;;;;;;;;8.00;7.50;;;;;21.61;34.37;101709.72;5078072;27;47009;-43
2023/04/09 04:34:49;;;;;;;;;7.00;7.00;;;;;21.62;34.42;101712.31;5077215;28;57976;-44
2023/04/09 04:37:14;;;;;;;;;8.75;7.50;;;;;21.64;34.06;101711.38;5077830;27;45205;-44
2023/04/09 04:39:39;;;;;;;;;7.75;7.75;;;;;21.66;34.54;101717.44;5077976;28;45514;-44
2023/04/09 04:42:04;;;;;;;;;10.00;8.00;;;;;21.65;34.16;101711.28;5077551;28;45841;-44
2023/04/09 04:44:30;;;;;;;;;8.50;8.50;;;;;21.66;34.11;101718.28;5076814;27;60753;-44
2023/04/09 04:46:55;;;;;;;;;9.75;8.25;;;;;21.66;34.20;101717.44;5077614;27;52359;-44
2023/04/09 04:49:20;;;;;;;;;6.25;6.25;;;;;21.68;34.58;101721.72;5077978;27;45653;-48
2023/04/09 04:51:46;;;;;;;;;7.00;7.00;;;;;21.67;34.30;101720.00;5077465;27;45365;-44
2023/04/09 04:54:11;;;;;;;;;8.00;8.00;;;;;21.69;34.46;101722.56;5076161;28;45426;-44
2023/04/09 04:56:36;;;;;;;;;9.00;7.75;;;;;21.69;34.17;101722.56;5077686;27;45505;-45
2023/04/09 04:59:02;;;;;;;;;7.50;6.50;;;;;21.70;34.38;101726.91;5077347;27;46726;-44
2023/04/09 05:01:27;;;;;;;;;8.00;5.50;;;;;21.70;34.30;101719.00;5077505;28;45365;-44
2023/04/09 05:03:52;;;;;;;;;7.00;6.00;;;;;21.71;34.07;101728.63;5076566;28;65301;-44
2023/04/09 05:06:18;;;;;;;;;10.67;9.00;;;;;21.70;34.36;101724.28;5077007;28;49555;-44
2023/04/09 05:08:43;;;;;;;;;9.00;7.00;;;;;21.70;34.09;101734.81;5077133;28;45518;-44
2023/04/09 05:11:11;;;;;;;;;8.00;7.67;;;;;21.70;34.26;101729.56;5076053;28;68708;-44
2023/04/09 05:13:36;;;;;;;;;8.25;6.00;;;;;21.70;34.36;101734.81;5077059;28;45219;-44
2023/04/09 05:16:02;;;;;;;;;9.00;9.00;;;;;21.70;34.22;101740.09;5076975;27;45160;-44
2023/04/09 05:18:27;;;;;;;;;10.00;9.00;;;;;21.69;34.12;101743.66;5077180;27;45217;-44
2023/04/09 05:20:53;;;;;;;;;8.75;6.00;;;;;21.67;33.91;101730.56;5076922;28;48023;-44
2023/04/09 05:23:18;;;;;;;;;9.00;9.00;;;;;21.67;34.13;101734.97;5076136;28;69602;-44
2023/04/09 05:25:43;;;;;;;;;8.67;8.00;;;;;21.67;34.21;101738.47;5076087;28;67181;-44
2023/04/09 05:28:10;;;;;;;;;9.75;9.00;;;;;21.65;34.04;101736.84;5077245;27;45199;-44
2023/04/09 05:30:35;;;;;;;;;7.75;7.50;;;;;21.64;33.73;101737.75;5077009;27;46643;-44
2023/04/09 05:33:00;;;;;;;;;8.00;8.00;;;;;21.62;33.87;101737.81;5076919;27;45452;-44
2023/04/09 05:35:26;;;;;;;;;9.25;8.75;;;;;21.62;33.85;101743.09;5077288;28;45279;-44
2023/04/09 05:37:51;;;;;;;;;8.25;8.25;;;;;21.59;34.12;101737.97;5077074;28;45578;-44
2023/04/09 05:40:17;;;;;;;;;11.00;8.25;;;;;21.59;33.87;101744.09;5076690;28;45340;-44
2023/04/09 05:42:42;;;;;;;;;8.00;6.75;;;;;21.57;33.61;101751.19;5076860;27;45374;-44
2023/04/09 05:45:08;;;;;;;;;8.00;8.00;;;;;21.56;34.04;101749.47;5075916;28;60520;-44
2023/04/09 05:47:33;;;;;;;;;9.50;8.50;;;;;21.53;34.09;101754.91;5076920;27;45361;-44
2023/04/09 05:49:59;;;;;;;;;14.75;8.50;;;;;21.52;34.21;101742.63;5076875;27;45951;-44
2023/04/09 05:52:25;;;;;;;;;10.50;8.00;;;;;21.52;33.98;101747.91;5075733;28;64241;-44
2023/04/09 05:54:50;;;;;;;;;9.25;6.25;;;;;21.50;34.16;101744.47;5076734;27;45397;-44
2023/04/09 05:57:16;;;;;;;;;8.00;8.00;;;;;21.50;34.04;101749.75;5076851;27;45519;-44
2023/04/09 05:59:41;;;;;;;;;8.33;7.33;;;;;21.48;34.09;101751.59;5075463;28;69357;-47
2023/04/09 06:02:06;;;;;;;;;12.25;8.00;;;;;21.47;34.04;101755.16;5076432;27;45378;-45
2023/04/09 06:04:31;;;;;;;;;9.00;7.33;;;;;21.46;34.26;101753.44;5076468;28;49992;-45
2023/04/09 06:06:59;;;;;;;;;9.00;8.00;;;;;21.45;33.78;101762.28;5076161;28;53147;-44
2023/04/09 06:09:25;;;;;;;;;7.50;5.00;;;;;21.43;34.12;101761.53;5076281;27;47402;-44
2023/04/09 06:11:50;;;;;;;;;8.75;8.25;;;;;21.43;33.97;101766.78;5076239;27;45267;-44
2023/04/09 06:14:17;;;;;;;;;10.00;9.00;;;;;21.40;34.00;101764.28;5076403;27;45377;-45
2023/04/09 06:16:42;;;;;;;;;7.50;7.50;;;;;21.38;34.21;101761.72;5076504;27;45583;-44
2023/04/09 06:19:07;;;;;;;;;8.75;7.50;;;;;21.38;33.92;101766.13;5076139;28;45437;-44
2023/04/09 06:21:33;;;;;;;;;8.00;8.00;;;;;21.37;34.28;101764.41;5076789;27;45505;-42
2023/04/09 06:23:58;;;;;;;;;9.00;9.00;;;;;21.33;34.02;101766.34;5079964;27;45280;-44
2023/04/09 06:26:23;;;;;;;;;9.00;8.00;;;;;21.33;34.02;101768.97;5080104;27;45385;-44
2023/04/09 06:28:49;;;;;;;;;8.25;8.25;;;;;21.31;34.02;101766.41;5079640;27;45958;-44
2023/04/09 06:31:14;;;;;;;;;9.75;7.75;;;;;21.29;34.38;101767.38;5079582;27;45468;-44
2023/04/09 06:33:39;;;;;;;;;10.00;9.25;;;;;21.28;34.11;101766.53;5079351;27;52266;-44
2023/04/09 06:36:05;;;;;;;;;11.00;8.00;;;;;21.27;34.27;101767.47;5078649;28;45253;-44
2023/04/09 06:38:31;;;;;;;;;11.75;9.00;;;;;21.26;33.95;101763.09;5079714;28;46475;-46
2023/04/09 06:40:56;;;;;;;;;9.50;8.25;;;;;21.23;34.01;101765.88;5079712;27;45363;-44
2023/04/09 06:43:22;;;;;;;;;8.25;8.25;;;;;21.24;34.38;101764.94;5079252;27;45317;-44
2023/04/09 06:45:47;;;;;;;;;10.75;7.25;;;;;21.23;34.06;101757.94;5079676;28;45426;-44
2023/04/09 06:48:12;;;;;;;;;6.75;5.00;;;;;21.21;34.08;101757.19;5079367;28;46243;-43
2023/04/09 06:50:37;;;;;;;;;16.50;12.25;;;;;21.18;33.96;101759.94;5079468;28;45301;-43
2023/04/09 06:53:05;;;;;;;;;11.25;9.25;;;;;21.15;34.06;101760.06;5079905;28;45204;-44
2023/04/09 06:55:30;;;;;;;;;9.00;9.00;;;;;21.12;34.36;101765.47;5079882;27;45561;-44
2023/04/09 06:57:55;;;;;;;;;11.00;11.00;;;;;21.15;34.56;101760.06;5079274;27;46145;-44
2023/04/09 07:00:21;;;;;;;;;11.25;9.25;;;;;21.14;34.51;101769.78;5078068;28;45412;-44
2023/04/09 07:02:47;;;;;;;;;8.75;7.75;;;;;21.13;34.39;101767.19;5079491;27;45318;-45
2023/04/09 07:05:12;;;;;;;;;10.75;9.00;;;;;21.13;34.31;101773.34;5079355;27;45327;-45
2023/04/09 07:07:38;;;;;;;;;10.67;9.00;;;;;21.12;34.71;101774.25;5078274;28;66644;-45
2023/04/09 07:10:05;;;;;;;;;11.25;9.75;;;;;21.12;34.15;101770.75;5079225;27;45432;-47
2023/04/09 07:12:32;;;;;;;;;8.00;8.00;;;;;21.11;34.73;101769.06;5079084;27;45297;-44
2023/04/09 07:15:02;;;;;;;;;11.00;10.00;;;;;21.10;34.52;101775.25;5079427;27;45591;-44
2023/04/09 07:17:28;;;;;;;;;8.00;8.00;;;;;21.10;34.66;101768.19;5078817;27;47453;-43
2023/04/09 07:19:53;;;;;;;;;11.25;8.50;;;;;21.09;34.52;101770.91;5077856;28;45628;-44
2023/04/09 07:22:22;;;;;;;;;11.50;10.50;;;;;21.09;34.80;101768.25;5079036;27;45353;-44
2023/04/09 07:24:54;;;;;;;;;14.25;10.50;;;;;21.08;34.66;101775.28;5079055;27;45184;-44
2023/04/09 07:27:22;;;;;;;;;11.00;9.00;;;;;21.09;34.33;101776.16;5082843;27;46126;-44
2023/04/09 07:29:47;;;;;;;;;9.00;7.50;;;;;21.09;34.81;101771.75;5099316;27;45757;-49
2023/04/09 07:32:12;;;;;;;;;7.75;7.75;;;;;21.09;34.55;101771.75;5099534;27;45859;-46
2023/04/09 07:34:38;;;;;;;;;7.75;7.75;;;;;21.10;34.73;101759.44;5099267;27;45263;-45
2023/04/09 07:37:03;;;;;;;;;9.50;9.25;;;;;21.09;34.48;101760.34;5099513;27;45260;-44
2023/04/09 07:39:28;;;;;;;;;11.00;9.00;;;;;21.10;34.72;101762.91;5099127;27;45206;-44
2023/04/09 07:41:55;;;;;;;;;9.50;9.00;;;;;21.11;34.83;101761.16;5099153;27;45305;-44
2023/04/09 07:44:20;;;;;;;;;9.75;8.25;;;;;21.12;34.83;101765.47;5099178;27;45464;-42
2023/04/09 07:46:45;;;;;;;;;11.00;9.00;;;;;21.12;34.82;101773.38;5098844;27;46111;-45
2023/04/09 07:49:11;;;;;;;;;8.50;8.50;;;;;21.12;34.72;101776.00;5098795;27;46627;-44
2023/04/09 07:51:36;;;;;;;;;8.33;8.00;;;;;21.11;34.99;101769.06;5098762;27;59355;-43
2023/04/09 07:54:01;;;;;;;;;8.00;8.00;;;;;21.12;34.86;101773.38;5099127;27;45504;-44
2023/04/09 07:56:27;;;;;;;;;10.00;6.50;;;;;21.11;34.87;101775.19;5098493;27;52762;-44
2023/04/09 07:58:52;;;;;;;;;10.00;8.00;;;;;21.12;34.82;101776.00;5098728;27;45404;-46
2023/04/09 08:01:20;;;;;;;;;9.67;9.67;;;;;21.12;34.77;101776.88;5098079;27;63180;-45
2023/04/09 08:03:45;;;;;;;;;7.00;7.00;;;;;21.11;34.60;101774.34;5098900;27;45306;-45
2023/04/09 08:06:11;;;;;;;;;7.00;7.00;;;;;21.12;34.91;101773.38;5098658;27;46182;-44
2023/04/09 08:08:36;;;;;;;;;11.00;8.75;;;;;21.11;34.67;101776.97;5099059;27;45190;-44
2023/04/09 08:11:01;;;;;;;;;9.00;7.50;;;;;21.12;34.56;101760.19;5098640;27;45539;-44
2023/04/09 08:13:27;;;;;;;;;13.75;9.75;;;;;21.12;34.89;101781.28;5099048;27;45214;-45
2023/04/09 08:15:52;;;;;;;;;12.75;8.50;;;;;21.11;34.61;101769.06;5098293;27;46128;-44
2023/04/09 08:18:18;;;;;;;;;8.75;8.25;;;;;21.11;34.53;101777.81;5098519;27;45228;-44
2023/04/09 08:20:46;;;;;;;;;9.50;8.00;;;;;21.11;34.92;101779.59;5098638;27;45292;-43
2023/04/09 08:23:11;;;;;;;;;8.00;7.00;;;;;21.12;34.92;101776.88;5098718;27;45529;-44
2023/04/09 08:25:36;;;;;;;;;8.25;7.25;;;;;21.12;34.84;101776.88;5098385;27;45946;-43
2023/04/09 08:28:02;;;;;;;;;9.00;8.50;;;;;21.12;34.73;101778.66;5098233;27;46966;-44
2023/04/09 08:30:27;;;;;;;;;7.25;7.25;;;;;21.12;34.69;101784.81;5095260;27;45371;-46
2023/04/09 08:32:52;;;;;;;;;9.00;7.00;;;;;21.11;34.70;101779.59;5077934;28;45394;-43
2023/04/09 08:35:18;;;;;;;;;5.00;4.00;;;;;21.11;34.52;101774.34;5077574;27;46256;-44
2023/04/09 08:37:43;;;;;;;;;8.25;7.75;;;;;21.12;34.97;101778.66;5077377;28;53785;-44
2023/04/09 08:40:10;;;;;;;;;9.25;7.50;;;;;21.12;34.72;101765.47;5078091;27;45311;-44
2023/04/09 08:42:43;;;;;;;;;10.75;7.00;;;;;21.11;34.71;101769.06;5077855;27;45473;-43
2023/04/09 08:45:10;;;;;;;;;7.25;7.25;;;;;21.10;34.75;101767.34;5077033;27;46311;-43
2023/04/09 08:47:36;;;;;;;;;7.00;6.75;;;;;21.12;34.67;101765.47;5077612;27;45749;-43
2023/04/09 08:50:03;;;;;;;;;8.50;7.00;;;;;21.13;34.71;101764.56;5077686;27;45205;-43
2023/04/09 08:52:33;;;;;;;;;8.50;6.50;;;;;21.13;34.96;101762.78;5077815;27;45580;-43
2023/04/09 08:54:58;;;;;;;;;5.75;4.50;;;;;21.13;34.80;101764.56;5077482;27;46942;-43
2023/04/09 08:57:24;;;;;;;;;7.25;6.00;;;;;21.12;34.78;101760.19;5076107;28;45420;-43
2023/04/09 08:59:49;;;;;;;;;6.25;6.25;;;;;21.13;35.12;101761.91;5077600;27;45298;-43
2023/04/09 09:02:14;;;;;;;;;9.75;7.00;;;;;21.13;34.97;101754.00;5077347;27;45360;-44
2023/04/09 09:04:47;;;;;;;;;9.25;6.75;;;;;21.13;35.28;101751.38;5077398;27;46819;-43
2023/04/09 09:07:14;;;;;;;;;7.50;7.50;;;;;21.12;34.98;101739.97;5077482;27;45414;-43
2023/04/09 09:09:52;;;;;;;;;9.25;9.25;;;;;21.12;34.91;101745.25;5077709;27;45350;-43
2023/04/09 09:12:37;;;;;;;;;8.25;6.75;;;;;21.12;34.79;101744.38;5076089;28;45604;-43
2023/04/09 09:15:05;;;;;;;;;7.50;7.50;;;;;21.10;34.70;101744.47;5077010;27;46236;-42
2023/04/09 09:17:31;;;;;;;;;9.00;9.00;;;;;21.09;35.13;101739.28;5075574;28;45349;-42
2023/04/09 09:19:57;;;;;;;;;8.75;7.00;;;;;21.09;35.21;101734.84;5077185;27;45337;-43
2023/04/09 09:22:24;;;;;;;;;10.75;8.00;;;;;21.08;35.32;101743.66;5077384;27;45373;-44
2023/04/09 09:24:51;;;;;;;;;12.00;11.00;;;;;21.10;34.93;101751.53;5075649;28;48574;-42
2023/04/09 09:27:38;;;;;;;;;12.50;10.00;;;;;21.08;34.89;101743.66;5077004;28;45872;-47
2023/04/09 09:30:04;;;;;;;;;13.50;11.25;;;;;21.09;34.80;101747.19;5077141;27;45378;-42
2023/04/09 09:32:31;;;;;;;;;18.75;14.75;;;;;21.08;35.13;101742.81;5077347;27;45308;-44
2023/04/09 09:35:02;;;;;;;;;14.50;13.00;;;;;21.06;35.26;101750.78;5076798;27;46286;-44
2023/04/09 09:37:28;;;;;;;;;14.75;14.00;;;;;21.05;34.79;101735.03;5076956;27;45912;-44
2023/04/09 09:39:54;;;;;;;;;12.75;10.25;;;;;21.06;35.15;101734.13;5076948;27;45309;-43
2023/04/09 09:42:20;;;;;;;;;10.75;9.00;;;;;21.04;35.33;101725.41;5077002;27;45369;-43
2023/04/09 09:44:46;;;;;;;;;11.50;11.50;;;;;21.04;35.12;101717.50;5076797;27;46314;-43
2023/04/09 09:47:13;;;;;;;;;14.75;13.50;;;;;21.03;35.18;101721.06;5076958;27;45509;-43
2023/04/09 09:49:39;;;;;;;;;13.00;10.25;;;;;21.04;35.32;101725.41;5076872;28;45316;-44
2023/04/09 09:52:08;;;;;;;;;12.75;12.00;;;;;21.05;34.94;101721.88;5076916;27;45326;-44
2023/04/09 09:54:41;;;;;;;;;12.75;10.00;;;;;21.06;35.60;101715.66;5076567;27;46628;-44
2023/04/09 09:57:09;;;;;;;;;15.25;11.75;;;;;21.07;35.58;101723.50;5075434;27;45259;-44
2023/04/09 09:59:42;;;;;;;;;11.00;9.00;;;;;21.07;35.19;101726.13;5076765;27;45299;-45
2023/04/09 10:02:17;;;;;;;;;10.75;10.25;;;;;21.07;35.48;101717.38;5075714;28;45561;-45
2023/04/09 10:04:43;;;;;;;;;10.00;10.00;;;;;21.09;35.39;101720.81;5076614;27;46057;-45
2023/04/09 10:07:09;;;;;;;;;14.25;10.00;;;;;21.11;35.52;101721.63;5075151;28;45248;-44
2023/04/09 10:09:36;;;;;;;;;11.75;9.00;;;;;21.10;35.56;101714.63;5076495;28;45243;-44
2023/04/09 10:12:05;;;;;;;;;8.25;7.25;;;;;21.11;35.65;101711.06;5076634;27;45300;-45
2023/04/09 10:14:32;;;;;;;;;11.00;8.00;;;;;21.10;35.16;101709.34;5076265;27;46288;-45
2023/04/09 10:16:57;;;;;;;;;12.75;11.00;;;;;21.10;35.03;101714.63;5076254;27;45254;-46
2023/04/09 10:19:23;;;;;;;;;10.75;9.00;;;;;21.10;35.52;101720.75;5076589;27;45294;-47
2023/04/09 10:22:08;;;;;;;;;11.75;8.25;;;;;21.09;35.58;101715.53;5076566;28;45349;-45
2023/04/09 10:24:35;;;;;;;;;24.50;21.00;;;;;21.08;35.37;101713.84;5074558;28;48106;-44
2023/04/09 10:27:11;;;;;;;;;14.75;12.25;;;;;21.07;35.25;101704.22;5076144;28;45348;-45
2023/04/09 10:29:43;;;;;;;;;14.50;12.50;;;;;21.08;35.76;101701.50;5076325;27;45479;-44
2023/04/09 10:32:10;;;;;;;;;13.75;10.00;;;;;21.10;35.32;101709.34;5076283;28;45458;-44
2023/04/09 10:34:41;;;;;;;;;14.00;12.25;;;;;21.08;35.48;101701.50;5075920;27;47142;-43
2023/04/09 10:37:08;;;;;;;;;16.75;10.50;;;;;21.07;35.44;101705.06;5074831;28;45747;-43
2023/04/09 10:39:43;;;;;;;;;18.50;15.00;;;;;21.07;35.29;101709.47;5075066;28;45423;-42
2023/04/09 10:42:13;;;;;;;;;12.00;11.00;;;;;21.06;35.00;101702.50;5076303;27;45337;-42
2023/04/09 10:44:42;;;;;;;;;16.25;15.00;;;;;21.04;35.20;101704.34;5074768;28;45404;-43
2023/04/09 10:47:08;;;;;;;;;13.50;11.25;;;;;21.03;34.56;101700.84;5075892;27;45238;-43
2023/04/09 10:49:40;;;;;;;;;13.00;11.50;;;;;21.01;34.64;101698.28;5076014;27;45230;-42
2023/04/09 10:52:10;;;;;;;;;12.75;12.75;;;;;21.00;34.66;101693.06;5076327;27;45213;-46
2023/04/09 10:54:44;;;;;;;;;17.25;11.25;;;;;21.01;35.05;101695.63;5074398;28;46210;-43
2023/04/09 10:57:14;;;;;;;;;14.50;14.00;;;;;21.00;34.35;101693.06;5075839;27;45251;-43
2023/04/09 10:59:43;;;;;;;;;12.75;10.75;;;;;20.99;34.40;101689.59;5074588;28;45856;-42
2023/04/09 11:02:28;;;;;;;;;15.75;14.50;;;;;20.99;34.71;101686.09;5076084;27;45211;-43
2023/04/09 11:05:18;;;;;;;;;13.50;11.75;;;;;20.99;34.79;101683.44;5075482;28;46144;-42
2023/04/09 11:07:48;;;;;;;;;12.50;10.00;;;;;20.99;34.31;101692.22;5075915;28;45271;-45
2023/04/09 11:10:13;;;;;;;;;13.00;11.00;;;;;20.98;34.59;101695.78;5079448;27;45189;-50
2023/04/09 11:12:39;;;;;;;;;12.25;10.75;;;;;20.97;34.58;101694.06;5079494;27;45576;-45
2023/04/09 11:15:04;;;;;;;;;13.00;11.00;;;;;20.97;34.10;101685.28;5077650;28;46078;-46
2023/04/09 11:17:35;;;;;;;;;12.75;9.25;;;;;20.96;34.35;101686.22;5078840;27;45428;-44
2023/04/09 11:20:02;;;;;;;;;10.50;9.25;;;;;20.95;34.41;101688.00;5079274;27;45261;-43
2023/04/09 11:22:28;;;;;;;;;14.25;10.00;;;;;20.92;34.28;101674.97;5079285;28;45183;-43